createdAt,value
2023-01-03T00:01:57.092Z,9.02
2023-01-03T00:04:29.394Z,8.93
2023-01-03T00:06:59.050Z,8.98
2023-01-03T00:09:28.671Z,9.03
2023-01-03T00:12:10.798Z,8.86
2023-01-03T00:14:42.022Z,9.06
2023-01-03T00:17:13.282Z,9.10
2023-01-03T00:19:47.496Z,9.09
2023-01-03T00:22:19.048Z,9.03
2023-01-03T00:24:50.457Z,9.03
2023-01-03T00:27:20.253Z,8.91
2023-01-03T00:29:49.918Z,9.02
2023-01-03T00:32:19.564Z,8.99
2023-01-03T00:34:51.769Z,9.04
2023-01-03T00:37:21.558Z,9.00
2023-01-03T00:39:51.182Z,8.88
2023-01-03T00:42:20.790Z,8.87
2023-01-03T00:44:50.379Z,8.89
2023-01-03T00:47:20.025Z,8.89
2023-01-03T00:49:52.194Z,8.97
2023-01-03T00:52:21.796Z,8.91
2023-01-03T00:54:51.399Z,8.90
2023-01-03T00:57:21.027Z,8.90
2023-01-03T00:59:50.714Z,8.84
2023-01-03T01:02:20.578Z,8.72
2023-01-03T01:04:53.204Z,8.82
2023-01-03T01:07:22.815Z,8.68
2023-01-03T01:09:53.015Z,8.65
2023-01-03T01:12:22.702Z,8.62
2023-01-03T01:14:52.353Z,8.46
2023-01-03T01:17:23.084Z,8.46
2023-01-03T01:19:55.458Z,8.53
2023-01-03T01:22:25.123Z,8.21
2023-01-03T01:24:54.762Z,8.59
2023-01-03T01:27:25.617Z,8.58
2023-01-03T01:29:55.313Z,8.57
2023-01-03T01:32:25.037Z,8.46
2023-01-03T01:34:57.242Z,8.48
2023-01-03T01:37:26.854Z,8.41
2023-01-03T01:39:56.478Z,8.55
2023-01-03T01:42:38.631Z,8.51
2023-01-03T01:45:15.005Z,8.39
2023-01-03T01:47:52.337Z,8.40
2023-01-03T01:50:32.174Z,8.21
2023-01-03T01:53:05.671Z,8.36
2023-01-03T01:55:40.095Z,8.40
2023-01-03T01:58:12.672Z,8.36
2023-01-03T02:00:44.760Z,8.21
2023-01-03T02:03:15.168Z,8.30
2023-01-03T02:05:51.216Z,8.25
2023-01-03T02:08:21.133Z,8.03
2023-01-03T02:11:10.611Z,8.02
2023-01-03T02:13:49.125Z,7.76
2023-01-03T02:16:32.629Z,7.63
2023-01-03T02:19:16.593Z,7.81
2023-01-03T02:22:11.569Z,7.63
2023-01-03T02:25:03.069Z,7.75
2023-01-03T02:28:11.927Z,7.73
2023-01-03T02:30:51.782Z,7.49
2023-01-03T02:33:31.743Z,7.82
2023-01-03T02:36:10.032Z,7.92
2023-01-03T02:38:50.348Z,7.93
2023-01-03T02:41:32.353Z,7.96
2023-01-03T02:44:09.182Z,7.94
2023-01-03T02:46:46.934Z,8.07
2023-01-03T02:49:22.869Z,8.15
2023-01-03T02:51:57.144Z,8.17
2023-01-03T02:54:33.566Z,8.17
2023-01-03T02:57:07.319Z,8.03
2023-01-03T02:59:43.807Z,8.05
2023-01-03T03:02:19.804Z,8.12
2023-01-03T03:04:53.450Z,8.06
2023-01-03T03:07:27.702Z,8.08
2023-01-03T03:10:11.591Z,8.15
2023-01-03T03:12:57.747Z,8.13
2023-01-03T03:15:35.079Z,8.03
2023-01-03T03:18:11.072Z,8.16
2023-01-03T03:20:53.267Z,8.09
2023-01-03T03:23:42.519Z,8.08
2023-01-03T03:26:15.294Z,8.00
2023-01-03T03:28:47.841Z,8.20
2023-01-03T03:31:22.987Z,8.13
2023-01-03T03:34:00.251Z,8.05
2023-01-03T03:36:38.282Z,8.03
2023-01-03T03:39:30.836Z,8.08
2023-01-03T03:42:23.847Z,8.17
2023-01-03T03:45:04.310Z,8.03
2023-01-03T03:47:44.107Z,8.10
2023-01-03T03:50:21.146Z,8.17
2023-01-03T03:52:55.682Z,8.18
2023-01-03T03:55:30.660Z,8.15
2023-01-03T03:58:03.865Z,8.22
2023-01-03T04:00:38.699Z,8.33
2023-01-03T04:03:10.128Z,8.27
2023-01-03T04:05:46.776Z,8.39
2023-01-03T04:08:16.548Z,8.37
2023-01-03T04:10:46.537Z,8.40
2023-01-03T04:13:16.264Z,8.26
2023-01-03T04:15:45.897Z,8.39
2023-01-03T04:18:15.555Z,7.80
2023-01-03T04:20:47.742Z,8.31
2023-01-03T04:23:17.392Z,8.40
2023-01-03T04:25:49.145Z,8.40
2023-01-03T04:28:19.280Z,8.46
2023-01-03T04:30:49.762Z,8.33
2023-01-03T04:33:19.715Z,8.40
2023-01-03T04:35:51.920Z,8.47
2023-01-03T04:38:21.572Z,8.54
2023-01-03T04:40:51.269Z,8.50
2023-01-03T04:43:33.446Z,8.24
2023-01-03T04:46:03.179Z,8.56
2023-01-03T04:48:32.821Z,8.57
2023-01-03T04:51:05.007Z,8.64
2023-01-03T04:53:34.666Z,8.63
2023-01-03T04:56:04.328Z,8.62
2023-01-03T04:58:34.020Z,8.48
2023-01-03T05:01:04.645Z,8.59
2023-01-03T05:03:35.609Z,8.66
2023-01-03T05:06:10.341Z,8.50
2023-01-03T05:08:40.024Z,8.52
2023-01-03T05:11:10.203Z,8.50
2023-01-03T05:13:39.817Z,8.51
2023-01-03T05:16:12.233Z,8.55
2023-01-03T05:18:45.187Z,8.48
2023-01-03T05:21:33.095Z,8.41
2023-01-03T05:24:15.528Z,8.39
2023-01-03T05:26:46.387Z,8.44
2023-01-03T05:29:18.058Z,8.46
2023-01-03T05:31:47.786Z,8.39
2023-01-03T05:34:17.851Z,8.39
2023-01-03T05:36:50.132Z,8.48
2023-01-03T05:39:19.765Z,8.44
2023-01-03T05:42:04.466Z,8.50
2023-01-03T05:44:36.847Z,8.15
2023-01-03T05:47:08.183Z,8.46
2023-01-03T05:49:37.896Z,8.22
2023-01-03T05:52:10.230Z,8.28
2023-01-03T05:54:39.819Z,8.42
2023-01-03T05:57:09.459Z,8.45
2023-01-03T05:59:39.258Z,8.24
2023-01-03T06:02:09.047Z,8.31
2023-01-03T06:04:38.895Z,7.97
2023-01-03T06:07:11.163Z,8.27
2023-01-03T06:09:40.892Z,8.12
2023-01-03T06:12:10.696Z,8.07
2023-01-03T06:14:41.072Z,7.95
2023-01-03T06:17:23.270Z,7.64
2023-01-03T06:19:52.923Z,7.68
2023-01-03T06:22:25.119Z,7.69
2023-01-03T06:24:54.698Z,7.75
2023-01-03T06:27:24.328Z,7.76
2023-01-03T06:29:54.046Z,7.76
2023-01-03T06:32:23.766Z,7.77
2023-01-03T06:34:53.361Z,7.75
2023-01-03T06:37:25.667Z,7.72
2023-01-03T06:39:55.263Z,7.58
2023-01-03T06:42:37.175Z,7.57
2023-01-03T06:45:20.308Z,7.40
2023-01-03T06:48:02.519Z,7.29
2023-01-03T06:50:44.674Z,7.31
2023-01-03T06:53:19.606Z,7.07
2023-01-03T06:55:56.341Z,7.05
2023-01-03T06:58:27.640Z,7.03
2023-01-03T07:00:58.792Z,7.11
2023-01-03T07:03:28.603Z,6.92
2023-01-03T07:05:58.217Z,6.94
2023-01-03T07:08:30.635Z,6.90
2023-01-03T07:11:00.320Z,6.97
2023-01-03T07:13:54.277Z,6.82
2023-01-03T07:16:23.891Z,7.03
2023-01-03T07:18:55.513Z,6.99
2023-01-03T07:21:26.133Z,7.06
2023-01-03T07:24:01.820Z,7.10
2023-01-03T07:26:33.664Z,7.01
2023-01-03T07:29:06.371Z,7.11
2023-01-03T07:31:36.029Z,7.22
2023-01-03T07:34:05.719Z,7.22
2023-01-03T07:36:35.361Z,7.28
2023-01-03T07:39:07.616Z,7.37
2023-01-03T07:41:49.754Z,7.36
2023-01-03T07:44:21.187Z,7.31
2023-01-03T07:46:50.887Z,7.20
2023-01-03T07:49:20.580Z,7.14
2023-01-03T07:51:50.183Z,7.01
2023-01-03T07:54:22.629Z,7.06
2023-01-03T07:56:54.226Z,7.04
2023-01-03T07:59:23.875Z,7.11
2023-01-03T08:01:53.648Z,6.81
2023-01-03T08:04:23.527Z,6.98
2023-01-03T08:06:54.114Z,7.13
2023-01-03T08:09:38.952Z,7.12
2023-01-03T08:12:23.579Z,7.05
2023-01-03T08:14:53.248Z,7.09
2023-01-03T08:17:23.073Z,7.11
2023-01-03T08:19:52.779Z,7.16
2023-01-03T08:22:22.486Z,7.07
2023-01-03T08:24:54.771Z,7.24
2023-01-03T08:27:24.446Z,7.23
2023-01-03T08:29:54.088Z,7.39
2023-01-03T08:32:24.246Z,7.32
2023-01-03T08:34:55.288Z,7.21
2023-01-03T08:37:25.129Z,7.06
2023-01-03T08:40:04.961Z,7.15
2023-01-03T08:42:36.596Z,6.72
2023-01-03T08:45:11.965Z,7.01
2023-01-03T08:47:41.995Z,7.25
2023-01-03T08:50:13.434Z,7.33
2023-01-03T08:52:47.085Z,7.31
2023-01-03T08:55:19.432Z,7.38
2023-01-03T08:57:50.268Z,7.11
2023-01-03T09:00:20.512Z,7.32
2023-01-03T09:02:50.498Z,7.45
2023-01-03T09:05:21.691Z,7.10
2023-01-03T09:07:53.425Z,7.26
2023-01-03T09:10:26.090Z,7.33
2023-01-03T09:12:55.977Z,9.27
2023-01-03T09:15:26.537Z,8.72
2023-01-03T09:18:00.108Z,8.02
2023-01-03T09:20:30.831Z,7.79
2023-01-03T09:23:02.052Z,7.60
2023-01-03T09:25:37.213Z,7.54
2023-01-03T09:28:08.302Z,7.50
2023-01-03T09:30:37.941Z,7.57
2023-01-03T09:33:10.702Z,7.57
2023-01-03T09:35:40.611Z,7.62
2023-01-03T09:38:11.457Z,7.59
2023-01-03T09:40:50.719Z,7.69
2023-01-03T09:43:25.664Z,7.75
2023-01-03T09:45:59.961Z,7.80
2023-01-03T09:48:34.998Z,7.83
2023-01-03T09:51:31.173Z,7.97
2023-01-03T09:54:14.387Z,7.97
2023-01-03T09:56:59.565Z,8.10
2023-01-03T09:59:42.184Z,8.09
2023-01-03T10:02:44.333Z,8.07
2023-01-03T10:05:36.802Z,8.01
2023-01-03T10:08:31.178Z,8.04
2023-01-03T10:11:08.128Z,8.13
2023-01-03T10:13:51.982Z,8.21
2023-01-03T10:16:34.495Z,8.20
2023-01-03T10:19:20.079Z,8.18
2023-01-03T10:21:57.340Z,8.18
2023-01-03T10:24:29.163Z,8.23
2023-01-03T10:27:10.577Z,8.29
2023-01-03T10:29:44.139Z,8.41
2023-01-03T10:32:31.920Z,8.55
2023-01-03T10:35:18.419Z,8.49
2023-01-03T10:37:49.162Z,8.52
2023-01-03T10:40:19.164Z,8.51
2023-01-03T10:42:55.508Z,8.53
2023-01-03T10:45:27.859Z,8.24
2023-01-03T10:48:01.708Z,8.50
2023-01-03T10:50:40.627Z,8.51
2023-01-03T10:53:16.237Z,8.50
2023-01-03T10:55:52.634Z,8.62
2023-01-03T10:58:30.604Z,8.70
2023-01-03T11:01:24.874Z,8.81
2023-01-03T11:04:20.025Z,8.63
2023-01-03T11:07:01.646Z,8.63
2023-01-03T11:09:37.550Z,8.63
2023-01-03T11:12:13.950Z,8.77
2023-01-03T11:14:52.508Z,8.78
2023-01-03T11:17:26.639Z,8.74
2023-01-03T11:19:57.857Z,8.84
2023-01-03T11:22:38.179Z,9.04
2023-01-03T11:25:21.984Z,9.12
2023-01-03T11:28:18.243Z,8.90
2023-01-03T11:31:01.119Z,8.80
2023-01-03T11:34:02.833Z,8.94
2023-01-03T11:36:43.075Z,8.91
2023-01-03T11:39:29.683Z,8.99
2023-01-03T11:42:30.012Z,9.05
2023-01-03T11:45:27.751Z,8.99
2023-01-03T11:48:14.198Z,9.03
2023-01-03T11:50:54.970Z,9.09
2023-01-03T11:53:37.115Z,9.59
2023-01-03T11:56:19.387Z,9.69
2023-01-03T11:59:14.122Z,9.66
2023-01-03T12:02:16.619Z,9.50
2023-01-03T12:05:01.590Z,9.55
2023-01-03T12:07:51.904Z,10.75
2023-01-03T12:10:27.665Z,10.25
2023-01-03T12:13:08.402Z,9.71
2023-01-03T12:15:47.431Z,9.68
2023-01-03T12:18:25.496Z,9.83
2023-01-03T12:20:59.939Z,9.75
2023-01-03T12:23:41.682Z,9.69
2023-01-03T12:26:14.314Z,9.80
2023-01-03T12:28:45.827Z,9.79
2023-01-03T12:31:31.241Z,9.85
2023-01-03T12:34:11.499Z,9.88
2023-01-03T12:36:46.846Z,10.19
2023-01-03T12:39:45.445Z,9.90
2023-01-03T12:42:25.060Z,10.16
2023-01-03T12:45:02.521Z,10.13
2023-01-03T12:47:38.569Z,10.15
2023-01-03T12:50:19.411Z,9.96
2023-01-03T12:52:57.303Z,9.96
2023-01-03T12:55:44.037Z,10.07
2023-01-03T12:58:33.861Z,9.88
2023-01-03T13:01:15.664Z,9.87
2023-01-03T13:03:52.771Z,9.79
2023-01-03T13:06:26.417Z,9.64
2023-01-03T13:09:01.570Z,9.46
2023-01-03T13:11:39.872Z,9.81
2023-01-03T13:14:23.606Z,9.89
2023-01-03T13:16:53.990Z,10.01
2023-01-03T13:19:42.684Z,9.94
2023-01-03T13:22:52.236Z,9.84
2023-01-03T13:25:45.898Z,9.85
2023-01-03T13:28:37.549Z,9.90
2023-01-03T13:31:48.134Z,9.85
2023-01-03T13:34:37.039Z,9.81
2023-01-03T13:37:20.973Z,10.12
2023-01-03T13:40:52.094Z,10.06
2023-01-03T13:43:23.346Z,10.21
2023-01-03T13:45:59.046Z,10.24
2023-01-03T13:48:35.965Z,10.45
2023-01-03T13:51:28.883Z,10.32
2023-01-03T13:54:02.125Z,10.29
2023-01-03T13:56:34.066Z,10.29
2023-01-03T13:59:14.088Z,10.04
2023-01-03T14:02:02.304Z,9.98
2023-01-03T14:05:00.478Z,10.06
2023-01-03T14:07:56.546Z,9.92
2023-01-03T14:10:41.416Z,10.06
2023-01-03T14:13:41.029Z,10.09
2023-01-03T14:16:25.382Z,10.11
2023-01-03T14:19:14.996Z,10.20
2023-01-03T14:21:49.093Z,10.15
2023-01-03T14:24:24.352Z,10.24
2023-01-03T14:26:54.678Z,10.21
2023-01-03T14:29:27.153Z,10.24
2023-01-03T14:32:00.474Z,10.38
2023-01-03T14:34:43.921Z,10.24
2023-01-03T14:37:17.836Z,10.27
2023-01-03T14:39:57.615Z,10.35
2023-01-03T14:42:27.856Z,10.33
2023-01-03T14:45:05.223Z,10.35
2023-01-03T14:47:40.072Z,10.41
2023-01-03T14:50:17.923Z,10.43
2023-01-03T14:52:53.673Z,10.39
2023-01-03T14:55:28.927Z,10.41
2023-01-03T14:57:59.580Z,10.41
2023-01-03T15:00:33.526Z,10.50
2023-01-03T15:03:04.974Z,10.71
2023-01-03T15:05:40.785Z,10.59
2023-01-03T15:08:25.415Z,10.52
2023-01-03T15:10:59.741Z,10.50
2023-01-03T15:13:35.769Z,10.41
2023-01-03T15:16:21.258Z,10.41
2023-01-03T15:18:52.321Z,10.10
2023-01-03T15:21:28.010Z,10.12
2023-01-03T15:24:00.038Z,10.03
2023-01-03T15:26:42.113Z,10.16
2023-01-03T15:29:16.820Z,10.11
2023-01-03T15:31:53.804Z,10.17
2023-01-03T15:34:28.490Z,10.25
2023-01-03T15:37:03.319Z,10.26
2023-01-03T15:39:42.917Z,10.13
2023-01-03T15:42:44.677Z,10.25
2023-01-03T15:45:21.929Z,10.06
2023-01-03T15:47:54.187Z,10.29
2023-01-03T15:50:36.628Z,10.12
2023-01-03T15:53:23.840Z,10.21
2023-01-03T15:55:55.320Z,10.24
2023-01-03T15:58:27.380Z,10.06
2023-01-03T16:00:57.609Z,10.23
2023-01-03T16:03:32.443Z,10.20
2023-01-03T16:06:06.442Z,10.25
2023-01-03T16:08:42.569Z,10.18
2023-01-03T16:11:19.871Z,10.16
2023-01-03T16:13:54.802Z,10.15
2023-01-03T16:16:29.220Z,10.01
2023-01-03T16:19:04.102Z,10.14
2023-01-03T16:21:34.182Z,10.13
2023-01-03T16:24:06.704Z,10.16
2023-01-03T16:26:36.367Z,9.91
2023-01-03T16:29:08.036Z,9.89
2023-01-03T16:31:42.297Z,9.89
2023-01-03T16:34:20.148Z,9.86
2023-01-03T16:36:55.501Z,9.77
2023-01-03T16:39:29.399Z,9.65
2023-01-03T16:42:12.584Z,9.84
2023-01-03T16:44:44.161Z,9.72
2023-01-03T16:47:18.281Z,9.59
2023-01-03T16:49:50.119Z,9.60
2023-01-03T16:52:26.944Z,9.66
2023-01-03T16:54:59.402Z,9.50
2023-01-03T16:57:30.725Z,9.72
2023-01-03T17:00:00.518Z,9.70
2023-01-03T17:02:34.194Z,9.83
2023-01-03T17:05:04.979Z,9.78
2023-01-03T17:07:34.862Z,9.76
2023-01-03T17:10:26.062Z,9.76
2023-01-03T17:13:04.114Z,9.65
2023-01-03T17:15:38.122Z,9.27
2023-01-03T17:18:08.822Z,9.67
2023-01-03T17:20:38.501Z,9.67
2023-01-03T17:23:12.017Z,9.54
2023-01-03T17:25:44.725Z,9.65
2023-01-03T17:28:20.219Z,9.82
2023-01-03T17:30:56.662Z,9.67
2023-01-03T17:33:32.077Z,9.55
2023-01-03T17:36:03.701Z,9.49
2023-01-03T17:38:37.349Z,9.24
2023-01-03T17:41:16.886Z,9.45
2023-01-03T17:43:46.559Z,9.37
2023-01-03T17:46:32.846Z,9.43
2023-01-03T17:49:18.666Z,9.39
2023-01-03T17:51:48.820Z,9.30
2023-01-03T17:54:18.814Z,9.35
2023-01-03T17:56:52.095Z,8.98
2023-01-03T17:59:21.759Z,9.19
2023-01-03T18:01:52.355Z,9.21
2023-01-03T18:04:30.207Z,9.19
2023-01-03T18:07:08.204Z,9.13
2023-01-03T18:09:38.298Z,9.08
2023-01-03T18:12:12.464Z,9.16
2023-01-03T18:14:42.051Z,8.97
2023-01-03T18:17:29.760Z,9.14
2023-01-03T18:20:00.998Z,8.95
2023-01-03T18:22:34.172Z,8.97
2023-01-03T18:25:03.834Z,8.95
2023-01-03T18:27:37.360Z,8.47
2023-01-03T18:30:08.429Z,8.96
2023-01-03T18:32:38.069Z,8.85
2023-01-03T18:35:09.646Z,8.98
2023-01-03T18:37:43.642Z,8.85
2023-01-03T18:40:21.169Z,9.00
2023-01-03T18:43:06.978Z,9.02
2023-01-03T18:45:38.347Z,9.09
2023-01-03T18:48:08.879Z,8.99
2023-01-03T18:50:39.470Z,8.88
2023-01-03T18:53:09.460Z,8.92
2023-01-03T18:55:39.115Z,8.86
2023-01-03T18:58:19.835Z,8.97
2023-01-03T19:00:53.141Z,8.97
2023-01-03T19:03:25.646Z,8.94
2023-01-03T19:05:57.414Z,8.80
2023-01-03T19:08:29.222Z,8.80
2023-01-03T19:11:00.378Z,8.64
2023-01-03T19:13:50.517Z,8.76
2023-01-03T19:16:22.893Z,8.68
2023-01-03T19:18:54.330Z,8.76
2023-01-03T19:21:25.806Z,8.80
2023-01-03T19:24:02.105Z,8.93
2023-01-03T19:26:37.058Z,8.70
2023-01-03T19:29:14.320Z,8.57
2023-01-03T19:31:50.184Z,8.51
2023-01-03T19:34:21.646Z,8.34
2023-01-03T19:36:51.564Z,8.31
2023-01-03T19:39:26.746Z,8.38
2023-01-03T19:42:13.607Z,8.28
2023-01-03T19:44:47.018Z,8.21
2023-01-03T19:47:19.967Z,8.26
2023-01-03T19:49:50.978Z,8.96
2023-01-03T19:52:21.355Z,9.06
2023-01-03T19:54:51.025Z,9.02
2023-01-03T19:57:25.244Z,8.80
2023-01-03T20:00:01.097Z,8.69
2023-01-03T20:02:39.764Z,8.34
2023-01-03T20:05:19.937Z,8.25
2023-01-03T20:07:50.480Z,8.17
2023-01-03T20:10:22.251Z,8.02
2023-01-03T20:12:55.761Z,8.13
2023-01-03T20:15:30.740Z,8.29
2023-01-03T20:18:00.886Z,8.37
2023-01-03T20:20:33.396Z,8.42
2023-01-03T20:23:07.059Z,8.54
2023-01-03T20:25:39.635Z,8.47
2023-01-03T20:28:16.215Z,8.39
2023-01-03T20:30:51.716Z,8.08
2023-01-03T20:33:23.375Z,8.11
2023-01-03T20:36:20.003Z,8.09
2023-01-03T20:38:49.860Z,7.95
2023-01-03T20:41:21.076Z,8.27
2023-01-03T20:43:52.343Z,8.28
2023-01-03T20:46:25.181Z,8.27
2023-01-03T20:48:58.548Z,8.24
2023-01-03T20:51:29.331Z,8.20
2023-01-03T20:53:59.032Z,8.26
2023-01-03T20:56:29.325Z,7.95
2023-01-03T20:58:59.029Z,8.19
2023-01-03T21:01:31.450Z,8.23
2023-01-03T21:04:01.203Z,8.17
2023-01-03T21:06:31.882Z,8.29
2023-01-03T21:08:59.277Z,8.35
2023-01-03T21:11:30.882Z,8.27
2023-01-03T21:14:02.348Z,7.99
2023-01-03T21:16:36.936Z,8.13
2023-01-03T21:19:09.366Z,8.13
2023-01-03T21:21:39.021Z,8.04
2023-01-03T21:24:10.488Z,8.02
2023-01-03T21:26:40.484Z,7.86
2023-01-03T21:29:12.147Z,7.91
2023-01-03T21:31:45.713Z,7.92
2023-01-03T21:34:19.596Z,7.75
2023-01-03T21:36:49.702Z,7.84
2023-01-03T21:39:20.558Z,7.95
2023-01-03T21:42:02.761Z,7.96
2023-01-03T21:44:32.409Z,7.68
2023-01-03T21:47:04.763Z,8.07
2023-01-03T21:49:34.713Z,7.77
2023-01-03T21:52:04.665Z,7.69
2023-01-03T21:54:34.503Z,7.71
2023-01-03T21:57:04.371Z,7.76
2023-01-03T21:59:38.176Z,7.75
2023-01-03T22:02:25.221Z,7.58
2023-01-03T22:04:55.133Z,7.72
2023-01-03T22:07:25.803Z,7.63
2023-01-03T22:10:08.030Z,7.65
2023-01-03T22:12:37.787Z,7.81
2023-01-03T22:15:08.711Z,7.67
2023-01-03T22:17:43.234Z,7.83
2023-01-03T22:20:15.278Z,7.61
2023-01-03T22:22:47.425Z,7.77
2023-01-03T22:25:22.684Z,7.83
2023-01-03T22:27:52.608Z,7.76
2023-01-03T22:30:22.904Z,7.45
2023-01-03T22:32:58.838Z,7.63
2023-01-03T22:35:28.566Z,7.59
2023-01-03T22:37:59.115Z,7.52
2023-01-03T22:40:29.829Z,7.72
2023-01-03T22:42:59.456Z,7.74
2023-01-03T22:45:29.181Z,7.82
2023-01-03T22:48:02.751Z,7.76
2023-01-03T22:50:33.503Z,7.68
2023-01-03T22:53:04.410Z,7.49
2023-01-03T22:55:35.251Z,7.57
2023-01-03T22:58:05.289Z,7.44
2023-01-03T23:00:35.001Z,7.48
2023-01-03T23:03:07.399Z,7.50
2023-01-03T23:05:38.022Z,7.25
2023-01-03T23:08:09.767Z,7.43
2023-01-03T23:10:39.506Z,7.35
2023-01-03T23:13:07.735Z,7.46
2023-01-03T23:15:37.408Z,7.24
2023-01-03T23:18:10.718Z,7.29
2023-01-03T23:20:49.036Z,7.47
2023-01-03T23:23:19.032Z,7.33
2023-01-03T23:25:48.816Z,7.47
2023-01-03T23:28:18.748Z,7.50
2023-01-03T23:30:49.057Z,7.66
2023-01-03T23:33:21.875Z,7.60
2023-01-03T23:35:53.811Z,7.58
2023-01-03T23:38:23.500Z,7.65
2023-01-03T23:40:53.249Z,7.62
2023-01-03T23:43:22.951Z,7.10
2023-01-03T23:45:53.744Z,7.45
2023-01-03T23:48:26.036Z,7.45
2023-01-03T23:50:55.656Z,7.35
2023-01-03T23:53:25.262Z,7.40
2023-01-03T23:55:54.887Z,7.51
2023-01-03T23:58:24.549Z,7.45
